Flight Track Log - Related Links

Times and Time Zones

All times are in EST time to prevent confusion due to time zone crossing. See the DAL1709 flight status page for this flight to view local times or setup timezone preferences in your user account.

Time Position Orientation Groundspeed Altitude Reporting Facility
EST Latitude Longitude Course Direction KTS MPH feet Rate Location/Type
Sun 11:29:47 PM 33.6517 -84.4806 259° West 461 531 2,700  Level Atlanta Center
Sun 11:30:47 PM 33.6575 -84.5553 275° West 338 389 5,300 2,900 Climbing Atlanta Center
Sun 11:31:47 PM 33.6697 -84.6353 280° West 253 291 8,500 2,400 Climbing Atlanta Center
Sun 11:32:00 PM 33.8001 -84.7607 270° West  Level FlightAware Approximate
Sun 11:32:47 PM 33.6817 -84.7128 281° West 265 305 10,100  Level Atlanta Center
Sun 11:33:00 PM 33.8000 -84.8895 270° West  Level FlightAware Approximate
Sun 11:33:47 PM 33.7000 -84.8178 282° West 302 348 11,600  Level Atlanta Center
Sun 11:34:00 PM 33.7817 -85.0163 259° West  Level FlightAware Approximate
Sun 11:34:47 PM 33.7181 -84.9353 280° West 350 403 14,000  Level Atlanta Center
Sun 11:35:47 PM 33.7589 -85.0508 293° West 371 427 16,200 2,150 Climbing Atlanta Center
Sun 11:36:47 PM 33.8161 -85.1789 298° West 384 442 18,300 2,100 Climbing Atlanta Center
Sun 11:37:47 PM 33.8692 -85.2972 298° West 395 455 20,400 2,000 Climbing Atlanta Center
Sun 11:38:47 PM 33.9264 -85.4183 300° West 400 460 22,300 1,750 Climbing Atlanta Center
Sun 11:39:47 PM 33.9833 -85.5419 299° West 410 472 23,900 1,650 Climbing Atlanta Center
Sun 11:40:47 PM 34.0381 -85.6633 299° West 416 479 25,600 2,000 Climbing Atlanta Center
Sun 11:41:47 PM 34.0992 -85.7797 302° West 409 471 27,900 1,200 Climbing Atlanta Center
Sun 11:42:47 PM 34.2047 -85.8422 334° Northwest 394 453 28,000 50 Climbing Atlanta Center
Sun 11:43:47 PM 34.3231 -85.8925 341° North 410 472 28,000  Level Atlanta Center
Sun 11:44:47 PM 34.4453 -85.9456 340° North 440 506 28,000  Level Atlanta Center
Sun 11:45:47 PM 34.5633 -85.9961 341° North 446 513 28,000  Level Atlanta Center
Sun 11:46:47 PM 34.6794 -86.0444 341° North 446 513 28,000  Level Atlanta Center
Sun 11:47:47 PM 34.7956 -86.0925 341° North 446 513 28,000 -1,515 Level Atlanta Center
Sun 11:50:09 PM 35.0564 -86.2083 340° North 442 509 22,900 -2,228 Descending Memphis Center
Sun 11:51:09 PM 35.1639 -86.2564 340° North 433 498 20,500 -2,727 Descending Memphis Center
Sun 11:52:10 PM 35.2725 -86.3033 341° North 415 478 17,400 -2,826 Descending Memphis Center
Sun 11:53:10 PM 35.3797 -86.3486 341° North 408 470 14,800 -2,380 Descending Memphis Center
Sun 11:54:11 PM 35.4836 -86.3956 340° North 399 459 12,600 -1,835 Descending Memphis Center
Sun 11:55:11 PM 35.5839 -86.4400 340° North 385 443 11,100 -793 Descending Memphis Center
Sun 11:56:12 PM 35.6828 -86.4789 342° North 373 429 11,000 -397 Descending Memphis Center
Sun 11:57:12 PM 35.7736 -86.4808 359° North 329 379 10,300 -1,140 Descending Memphis Center
Sun 11:58:13 PM 35.8567 -86.4828 359° North 306 352 8,700 -1,587 Descending Memphis Center
Sun 11:59:13 PM 35.9339 -86.4844 359° North 285 328 7,100 -1,736 Descending Memphis Center
Mon 12:00:14 AM 35.9906 -86.4983 349° North 219 252 5,200 -1,983 Descending Memphis Center
Mon 12:01:14 AM 36.0292 -86.5497 313° West 203 234 3,100 -1,488 Descending Memphis Center
Mon 12:02:15 AM 36.0644 -86.5967 313° West 188 216 2,200 -793 Descending Memphis Center
Mon 12:03:15 AM 36.0897 -86.6283 315° West 137 158 1,500 -700 Descending Memphis Center
Mon 12:04:15 AM 36.1136 -86.6606 313° West 128 147 800 -496 Descending Memphis Center
Mon 12:05:16 AM 36.1425 -86.6972 314° West 129 148 500 -295 Descending Memphis Center

Login

Don't have an account? Register now (free) for customized features, flight alerts, and more!